Time;durP1;ratioP1;P1;durP2;ratioP2;P2;SDS_P1;SDS_P2;PMS_P1;PMS_P2;Temp;Humidity;BMP_temperature;BMP_pressure;BME280_temperature;BME280_humidity;BME280_pressure;Samples;Min_cycle;Max_cycle;Signal;HPM_P1;HPM_P2
2021/04/01 00:00:10;;;;;;;7.13;2.37;;;;;;;;;;5117918;28;20212;-78
2021/04/01 00:02:38;;;;;;;4.30;2.23;;;;;;;;;;5117885;28;20618;-79
2021/04/01 00:05:07;;;;;;;2.63;2.17;;;;;;;;;;5117841;28;20301;-79
2021/04/01 00:07:34;;;;;;;3.67;2.70;;;;;;;;;;5118002;28;20209;-79
2021/04/01 00:10:01;;;;;;;4.20;2.33;;;;;;;;;;5117916;28;20243;-79
2021/04/01 00:12:28;;;;;;;2.20;2.00;;;;;;;;;;5117838;28;20216;-79
2021/04/01 00:14:56;;;;;;;6.30;2.70;;;;;;;;;;5117798;28;20221;-79
2021/04/01 00:17:23;;;;;;;5.40;2.87;;;;;;;;;;5117773;28;20253;-79
2021/04/01 00:19:50;;;;;;;10.37;3.10;;;;;;;;;;5117730;28;20232;-78
2021/04/01 00:22:18;;;;;;;3.67;2.27;;;;;;;;;;5117530;28;20232;-79
2021/04/01 00:24:45;;;;;;;3.33;2.60;;;;;;;;;;5117519;28;20248;-79
2021/04/01 00:27:12;;;;;;;3.97;2.70;;;;;;;;;;5117395;28;20265;-78
2021/04/01 00:29:39;;;;;;;3.33;2.60;;;;;;;;;;5118104;28;20209;-79
2021/04/01 00:32:06;;;;;;;5.47;2.10;;;;;;;;;;5121314;28;20732;-78
2021/04/01 00:34:33;;;;;;;4.37;2.57;;;;;;;;;;5121393;28;20213;-79
2021/04/01 00:37:00;;;;;;;3.67;2.63;;;;;;;;;;5121522;28;20209;-78
2021/04/01 00:39:28;;;;;;;5.50;2.53;;;;;;;;;;5121223;28;20216;-78
2021/04/01 00:41:55;;;;;;;4.50;2.47;;;;;;;;;;5121080;28;20204;-79
2021/04/01 00:44:22;;;;;;;3.37;2.60;;;;;;;;;;5121275;28;20312;-79
2021/04/01 00:46:49;;;;;;;3.13;2.30;;;;;;;;;;5122265;27;20208;-80
2021/04/01 00:49:17;;;;;;;5.80;2.93;;;;;;;;;;5122957;28;20717;-78
2021/04/01 00:51:44;;;;;;;5.73;2.30;;;;;;;;;;5122381;28;20266;-79
2021/04/01 00:54:11;;;;;;;4.40;2.70;;;;;;;;;;5121489;28;20200;-78
2021/04/01 00:56:39;;;;;;;3.57;2.20;;;;;;;;;;5121214;28;20209;-78
2021/04/01 00:59:06;;;;;;;5.83;2.87;;;;;;;;;;5120868;28;20209;-79
2021/04/01 01:01:42;;;;;;;4.53;3.00;;;;;;;;;;5120760;28;20217;-79
2021/04/01 01:04:10;;;;;;;5.13;2.77;;;;;;;;;;5120819;28;20228;-79
2021/04/01 01:06:37;;;;;;;4.30;2.70;;;;;;;;;;5120858;28;20201;-79
2021/04/01 01:09:05;;;;;;;4.60;3.17;;;;;;;;;;5120674;28;20276;-80
2021/04/01 01:11:33;;;;;;;7.13;2.50;;;;;;;;;;5120687;28;20229;-79
2021/04/01 01:14:01;;;;;;;3.73;2.20;;;;;;;;;;5120593;28;20720;-79
2021/04/01 01:16:28;;;;;;;4.63;2.43;;;;;;;;;;5120872;28;20288;-80
2021/04/01 01:18:55;;;;;;;4.83;3.13;;;;;;;;;;5120473;28;20724;-78
2021/04/01 01:21:22;;;;;;;3.93;2.70;;;;;;;;;;5120430;28;20216;-79
2021/04/01 01:23:51;;;;;;;2.50;2.30;;;;;;;;;;5119898;28;20241;-78
2021/04/01 01:26:19;;;;;;;6.33;2.30;;;;;;;;;;5120312;28;20284;-79
2021/04/01 01:28:46;;;;;;;5.07;2.20;;;;;;;;;;5120450;28;20237;-78
2021/04/01 01:31:13;;;;;;;3.40;2.20;;;;;;;;;;5120479;28;20204;-79
2021/04/01 01:33:42;;;;;;;6.13;2.20;;;;;;;;;;5120284;28;20208;-79
2021/04/01 01:36:09;;;;;;;3.77;2.43;;;;;;;;;;5120002;28;20312;-78
2021/04/01 01:38:36;;;;;;;5.47;2.47;;;;;;;;;;5119757;28;20288;-77
2021/04/01 01:41:03;;;;;;;3.93;1.97;;;;;;;;;;5120315;28;20233;-77
2021/04/01 01:43:32;;;;;;;5.73;2.47;;;;;;;;;;5120035;28;20231;-78
2021/04/01 01:45:59;;;;;;;4.73;2.40;;;;;;;;;;5119994;28;20228;-79
2021/04/01 01:48:26;;;;;;;4.40;2.30;;;;;;;;;;5119890;28;20721;-78
2021/04/01 01:50:53;;;;;;;5.73;2.77;;;;;;;;;;5120062;28;20236;-78
2021/04/01 01:53:21;;;;;;;5.37;2.43;;;;;;;;;;5119637;28;20565;-79
2021/04/01 01:55:48;;;;;;;3.83;2.40;;;;;;;;;;5119721;28;20228;-78
2021/04/01 01:58:15;;;;;;;4.37;2.33;;;;;;;;;;5119561;28;20619;-78
2021/04/01 02:00:44;;;;;;;3.23;2.30;;;;;;;;;;5119761;28;20564;-79
2021/04/01 02:03:11;;;;;;;2.70;2.43;;;;;;;;;;5119501;28;20209;-77
2021/04/01 02:05:39;;;;;;;4.10;2.87;;;;;;;;;;5119434;28;20316;-78
2021/04/01 02:08:07;;;;;;;4.47;2.40;;;;;;;;;;5119641;28;20268;-79
2021/04/01 02:10:35;;;;;;;3.30;2.40;;;;;;;;;;5119461;28;20264;-79
2021/04/01 02:13:03;;;;;;;5.43;2.30;;;;;;;;;;5119561;28;20287;-77
2021/04/01 02:15:30;;;;;;;3.70;2.40;;;;;;;;;;5119239;28;20230;-78
2021/04/01 02:18:05;;;;;;;3.47;2.50;;;;;;;;;;5119265;28;20663;-79
2021/04/01 02:20:39;;;;;;;5.43;2.33;;;;;;;;;;5119327;28;20209;-79
2021/04/01 02:23:06;;;;;;;6.70;2.47;;;;;;;;;;5119183;28;20271;-79
2021/04/01 02:25:33;;;;;;;4.60;3.00;;;;;;;;;;5118643;28;20312;-79
2021/04/01 02:28:00;;;;;;;3.70;2.77;;;;;;;;;;5119034;28;20659;-77
2021/04/01 02:30:27;;;;;;;4.20;1.90;;;;;;;;;;5118953;28;20729;-79
2021/04/01 02:32:55;;;;;;;3.83;2.30;;;;;;;;;;5119302;28;20228;-78
2021/04/01 02:35:22;;;;;;;4.30;2.60;;;;;;;;;;5118766;28;20247;-79
2021/04/01 02:37:50;;;;;;;4.80;2.70;;;;;;;;;;5119018;28;20269;-78
2021/04/01 02:40:17;;;;;;;3.50;2.13;;;;;;;;;;5118755;28;20272;-78
2021/04/01 02:42:44;;;;;;;3.70;2.40;;;;;;;;;;5118983;28;20231;-79
2021/04/01 02:45:12;;;;;;;8.20;2.50;;;;;;;;;;5118822;28;20680;-77
2021/04/01 02:47:39;;;;;;;7.67;2.60;;;;;;;;;;5118811;28;20208;-79
2021/04/01 02:50:07;;;;;;;3.67;2.33;;;;;;;;;;5118663;28;20311;-79
2021/04/01 02:52:35;;;;;;;6.47;3.00;;;;;;;;;;5118554;28;20240;-78
2021/04/01 02:55:03;;;;;;;3.93;2.40;;;;;;;;;;5118419;28;20227;-78
2021/04/01 02:57:29;;;;;;;7.37;2.73;;;;;;;;;;5118437;28;20307;-79
2021/04/01 02:59:57;;;;;;;7.27;3.60;;;;;;;;;;5118760;28;20232;-79
2021/04/01 03:02:26;;;;;;;8.47;4.30;;;;;;;;;;5118792;28;20205;-79
2021/04/01 03:04:53;;;;;;;9.97;3.70;;;;;;;;;;5118545;28;20264;-77
2021/04/01 03:07:20;;;;;;;8.97;3.53;;;;;;;;;;5118454;28;20237;-79
2021/04/01 03:09:48;;;;;;;6.17;3.00;;;;;;;;;;5118312;28;20283;-80
2021/04/01 03:12:15;;;;;;;4.83;2.80;;;;;;;;;;5118316;28;20683;-78
2021/04/01 03:14:42;;;;;;;6.23;2.97;;;;;;;;;;5118834;28;20277;-78
2021/04/01 03:17:10;;;;;;;6.90;2.60;;;;;;;;;;5118507;28;20216;-77
2021/04/01 03:19:37;;;;;;;7.93;2.60;;;;;;;;;;5118222;28;20572;-77
2021/04/01 03:22:04;;;;;;;7.33;2.83;;;;;;;;;;5118182;28;20264;-79
2021/04/01 03:24:31;;;;;;;3.77;2.60;;;;;;;;;;5117779;28;20654;-78
2021/04/01 03:26:59;;;;;;;6.80;2.30;;;;;;;;;;5118049;28;20573;-78
2021/04/01 03:29:26;;;;;;;3.73;2.20;;;;;;;;;;5118472;28;20205;-78
2021/04/01 03:31:53;;;;;;;4.90;2.50;;;;;;;;;;5118266;28;20296;-79
2021/04/01 03:34:20;;;;;;;2.70;2.30;;;;;;;;;;5118306;28;20314;-79
2021/04/01 03:36:48;;;;;;;3.17;2.30;;;;;;;;;;5118222;28;20211;-77
2021/04/01 03:39:15;;;;;;;4.17;2.60;;;;;;;;;;5118109;28;20260;-77
2021/04/01 03:41:42;;;;;;;8.00;2.33;;;;;;;;;;5117914;28;20291;-79
2021/04/01 03:44:10;;;;;;;8.13;2.53;;;;;;;;;;5117971;28;20231;-79
2021/04/01 03:46:37;;;;;;;3.60;2.67;;;;;;;;;;5117927;28;20284;-78
2021/04/01 03:49:06;;;;;;;3.13;1.83;;;;;;;;;;5118365;28;20236;-78
2021/04/01 03:51:33;;;;;;;3.80;2.10;;;;;;;;;;5118200;28;20296;-79
2021/04/01 03:54:05;;;;;;;6.43;2.40;;;;;;;;;;5117920;28;20205;-79
2021/04/01 03:56:32;;;;;;;4.40;2.57;;;;;;;;;;5117947;27;20272;-79
2021/04/01 03:59:03;;;;;;;2.13;2.00;;;;;;;;;;5118184;28;20304;-78
2021/04/01 04:04:33;;;;;;;3.93;2.40;;;;;;;;;;5117656;28;20857;-78
2021/04/01 04:10:07;;;;;;;4.37;2.40;;;;;;;;;;5121832;28;20288;-77
2021/04/01 04:12:51;;;;;;;5.93;2.77;;;;;;;;;;5121857;28;20269;-78
2021/04/01 04:15:21;;;;;;;5.40;2.43;;;;;;;;;;5121995;28;20255;-78
2021/04/01 04:17:49;;;;;;;5.40;2.57;;;;;;;;;;5121650;28;20731;-78
2021/04/01 04:20:16;;;;;;;3.43;2.47;;;;;;;;;;5122204;28;20201;-79
2021/04/01 04:22:43;;;;;;;3.80;2.30;;;;;;;;;;5121385;28;20272;-79
2021/04/01 04:25:13;;;;;;;7.13;3.73;;;;;;;;;;5120053;28;20312;-79
2021/04/01 04:30:26;;;;;;;3.70;2.33;;;;;;;;;;5119951;27;20279;-79
2021/04/01 04:32:55;;;;;;;3.90;2.30;;;;;;;;;;5120910;27;20269;-78
2021/04/01 04:35:27;;;;;;;7.30;2.93;;;;;;;;;;5121540;27;20212;-78
2021/04/01 04:37:54;;;;;;;4.83;2.43;;;;;;;;;;5119044;27;20562;-79
2021/04/01 04:40:21;;;;;;;5.00;2.97;;;;;;;;;;5121974;27;20281;-78
2021/04/01 04:42:48;;;;;;;7.70;2.83;;;;;;;;;;5120662;27;20284;-78
2021/04/01 04:45:15;;;;;;;2.77;2.40;;;;;;;;;;5122854;27;20285;-79
2021/04/01 04:47:42;;;;;;;9.10;3.17;;;;;;;;;;5120065;28;20196;-78
2021/04/01 04:50:11;;;;;;;6.30;2.87;;;;;;;;;;5119573;28;20445;-78
2021/04/01 04:52:39;;;;;;;5.43;2.40;;;;;;;;;;5118973;28;20284;-78
2021/04/01 04:55:08;;;;;;;4.50;2.63;;;;;;;;;;5120456;27;20219;-77
2021/04/01 04:57:40;;;;;;;5.23;2.47;;;;;;;;;;5119738;27;20288;-78
2021/04/01 05:05:34;;;;;;;4.23;2.27;;;;;;;;;;5119140;28;20259;-78
2021/04/01 05:08:01;;;;;;;7.13;3.20;;;;;;;;;;5121904;27;20204;-77
2021/04/01 05:10:28;;;;;;;39.90;4.00;;;;;;;;;;5119118;28;20228;-78
2021/04/01 05:13:07;;;;;;;5.90;2.87;;;;;;;;;;5118092;27;20197;-78
2021/04/01 05:15:35;;;;;;;4.93;2.60;;;;;;;;;;5116234;28;20216;-78
2021/04/01 05:18:15;;;;;;;7.13;3.07;;;;;;;;;;5120762;27;20201;-77
2021/04/01 05:20:43;;;;;;;4.67;2.83;;;;;;;;;;5119234;27;20287;-79
2021/04/01 05:26:13;;;;;;;5.67;2.57;;;;;;;;;;5117965;27;20232;-77
2021/04/01 05:28:41;;;;;;;6.30;3.27;;;;;;;;;;5117641;27;20275;-78
2021/04/01 05:31:24;;;;;;;6.00;2.83;;;;;;;;;;5117669;28;20218;-79
2021/04/01 05:33:51;;;;;;;4.57;2.97;;;;;;;;;;5119512;28;20386;-79
2021/04/01 05:36:24;;;;;;;16.83;3.80;;;;;;;;;;5119083;28;20419;-78
2021/04/01 05:38:52;;;;;;;6.80;3.60;;;;;;;;;;5114863;28;20201;-78
2021/04/01 05:41:21;;;;;;;7.77;2.47;;;;;;;;;;5107695;28;20201;-79
2021/04/01 05:43:49;;;;;;;8.07;2.67;;;;;;;;;;5107393;28;20285;-77
2021/04/01 05:46:20;;;;;;;12.00;3.53;;;;;;;;;;5118933;28;20735;-77
2021/04/01 06:02:58;;;;;;;8.60;3.17;;;;;;;;;;5102426;28;20687;-77
2021/04/01 06:05:26;;;;;;;3.23;2.60;;;;;;;;;;5119407;28;20694;-77
2021/04/01 06:07:54;;;;;;;5.03;2.70;;;;;;;;;;5119426;28;20295;-76
2021/04/01 06:10:22;;;;;;;6.33;2.83;;;;;;;;;;5119392;28;20292;-77
2021/04/01 06:12:50;;;;;;;4.83;2.50;;;;;;;;;;5118937;28;20292;-77
2021/04/01 06:15:18;;;;;;;9.20;4.63;;;;;;;;;;5113450;28;20248;-77
2021/04/01 06:17:46;;;;;;;5.80;2.80;;;;;;;;;;5109551;28;20205;-76
2021/04/01 06:20:14;;;;;;;7.80;3.17;;;;;;;;;;5120416;27;20283;-77
2021/04/01 06:22:41;;;;;;;10.83;3.47;;;;;;;;;;5139608;27;20295;-77
2021/04/01 06:25:11;;;;;;;9.27;3.67;;;;;;;;;;5139113;27;20232;-78
2021/04/01 06:27:41;;;;;;;5.67;3.40;;;;;;;;;;5108622;27;20314;-78
2021/04/01 06:30:17;;;;;;;10.53;3.30;;;;;;;;;;5106493;28;20198;-79
2021/04/01 06:32:46;;;;;;;6.07;3.10;;;;;;;;;;5105849;28;20557;-78
2021/04/01 06:35:19;;;;;;;17.23;3.70;;;;;;;;;;5113290;28;20259;-77
2021/04/01 06:38:13;;;;;;;13.83;3.67;;;;;;;;;;5118764;28;20213;-79
2021/04/01 06:40:42;;;;;;;8.47;3.50;;;;;;;;;;5118476;28;20240;-80
2021/04/01 06:43:11;;;;;;;5.43;3.30;;;;;;;;;;5118678;28;20208;-80
2021/04/01 06:45:40;;;;;;;6.33;3.73;;;;;;;;;;5118259;28;20660;-80
2021/04/01 06:48:09;;;;;;;16.60;3.90;;;;;;;;;;5105182;28;20288;-80
2021/04/01 06:50:37;;;;;;;6.13;3.00;;;;;;;;;;5118490;28;20679;-80
2021/04/01 06:53:06;;;;;;;8.73;3.90;;;;;;;;;;5118578;28;20227;-80
2021/04/01 06:56:06;;;;;;;11.83;3.53;;;;;;;;;;5114813;28;20236;-76
2021/04/01 06:58:41;;;;;;;5.00;3.10;;;;;;;;;;5105988;28;20224;-75
2021/04/01 07:01:31;;;;;;;12.60;3.83;;;;;;;;;;5112134;28;20299;-74
2021/04/01 07:04:01;;;;;;;12.63;4.27;;;;;;;;;;5105870;28;20241;-75
2021/04/01 07:06:31;;;;;;;6.20;2.83;;;;;;;;;;5104712;28;20221;-74
2021/04/01 07:09:02;;;;;;;7.90;3.50;;;;;;;;;;5105585;28;20201;-74
2021/04/01 07:11:31;;;;;;;9.00;2.93;;;;;;;;;;5104739;28;20202;-75
2021/04/01 07:14:03;;;;;;;11.60;4.23;;;;;;;;;;5106525;28;20209;-75
2021/04/01 07:16:41;;;;;;;10.27;3.63;;;;;;;;;;5103052;28;20262;-75
2021/04/01 07:35:57;;;;;;;24.37;4.37;;;;;;;;;;5086777;28;20581;-77
2021/04/01 07:46:47;;;;;;;7.30;3.80;;;;;;;;;;5121925;28;20319;-77
2021/04/01 07:49:15;;;;;;;7.20;3.50;;;;;;;;;;5122213;28;20232;-77
2021/04/01 07:51:57;;;;;;;6.47;3.77;;;;;;;;;;5121731;28;20292;-76
2021/04/01 07:54:29;;;;;;;10.37;3.83;;;;;;;;;;5121805;28;20312;-76
2021/04/01 07:57:03;;;;;;;9.77;3.40;;;;;;;;;;5121681;28;20201;-75
2021/04/01 07:59:33;;;;;;;7.97;3.03;;;;;;;;;;5121822;28;20637;-74
2021/04/01 08:02:20;;;;;;;4.53;3.23;;;;;;;;;;5121703;28;20205;-76
2021/04/01 08:04:47;;;;;;;6.63;2.80;;;;;;;;;;5121490;28;20308;-74
2021/04/01 08:07:15;;;;;;;4.70;3.07;;;;;;;;;;5121507;28;20307;-75
2021/04/01 08:09:44;;;;;;;10.47;2.97;;;;;;;;;;5111282;27;20289;-77
2021/04/01 08:12:18;;;;;;;4.37;3.20;;;;;;;;;;5141963;27;20291;-79
2021/04/01 08:14:53;;;;;;;6.43;3.10;;;;;;;;;;5109105;28;20316;-79
2021/04/01 08:17:22;;;;;;;7.53;2.73;;;;;;;;;;5109175;28;20192;-78
2021/04/01 08:19:51;;;;;;;4.47;3.40;;;;;;;;;;5106507;28;20232;-78
2021/04/01 08:22:41;;;;;;;5.13;3.07;;;;;;;;;;5109761;28;20243;-79
2021/04/01 08:25:30;;;;;;;7.13;2.50;;;;;;;;;;5107946;28;20236;-75
2021/04/01 08:28:33;;;;;;;5.07;2.50;;;;;;;;;;5108632;28;20209;-76
2021/04/01 08:31:55;;;;;;;3.80;2.40;;;;;;;;;;5101630;28;20212;-76
2021/04/01 08:34:42;;;;;;;4.53;2.53;;;;;;;;;;5119014;28;20221;-76
2021/04/01 08:37:31;;;;;;;3.80;2.60;;;;;;;;;;5106111;28;20198;-77
2021/04/01 08:40:19;;;;;;;5.73;2.40;;;;;;;;;;5118373;27;20211;-78
2021/04/01 08:43:31;;;;;;;5.33;2.30;;;;;;;;;;5141750;27;20663;-78
2021/04/01 08:46:33;;;;;;;9.03;3.53;;;;;;;;;;5130734;27;20235;-77
2021/04/01 08:49:25;;;;;;;4.80;2.30;;;;;;;;;;5116056;27;20213;-79
2021/04/01 08:52:02;;;;;;;7.37;2.87;;;;;;;;;;5108755;27;20321;-79
2021/04/01 08:54:31;;;;;;;3.67;2.30;;;;;;;;;;5106474;28;20220;-74
2021/04/01 08:57:02;;;;;;;3.97;2.33;;;;;;;;;;5105368;28;20201;-76
2021/04/01 08:59:33;;;;;;;3.80;2.33;;;;;;;;;;5106453;28;20661;-79
2021/04/01 09:02:02;;;;;;;3.17;2.43;;;;;;;;;;5107391;28;20223;-77
2021/04/01 09:04:30;;;;;;;5.53;2.53;;;;;;;;;;5105471;28;20221;-79
2021/04/01 09:06:59;;;;;;;8.20;2.93;;;;;;;;;;5114219;27;20220;-78
2021/04/01 09:09:30;;;;;;;4.83;2.00;;;;;;;;;;5099354;28;20716;-79
2021/04/01 09:12:07;;;;;;;3.60;2.10;;;;;;;;;;5113959;28;20664;-78
2021/04/01 09:14:36;;;;;;;2.57;2.00;;;;;;;;;;5101263;28;20754;-79
2021/04/01 09:17:09;;;;;;;4.07;2.23;;;;;;;;;;5116722;28;20196;-79
2021/04/01 09:19:37;;;;;;;6.77;2.17;;;;;;;;;;5110312;28;20287;-80
2021/04/01 09:22:15;;;;;;;6.90;2.33;;;;;;;;;;5114653;28;20304;-80
2021/04/01 09:24:42;;;;;;;4.80;2.33;;;;;;;;;;5109513;28;20252;-80
2021/04/01 09:27:13;;;;;;;4.77;2.07;;;;;;;;;;5117972;28;20258;-79
2021/04/01 09:29:41;;;;;;;4.37;2.40;;;;;;;;;;5120061;28;20213;-79
2021/04/01 09:32:11;;;;;;;4.57;2.30;;;;;;;;;;5114876;28;20676;-80
2021/04/01 09:34:39;;;;;;;3.50;2.13;;;;;;;;;;5102149;28;20224;-79
2021/04/01 09:37:08;;;;;;;3.97;2.17;;;;;;;;;;5110823;28;20284;-79
2021/04/01 09:39:35;;;;;;;4.13;2.00;;;;;;;;;;5107950;28;20288;-79
2021/04/01 09:42:06;;;;;;;5.53;2.37;;;;;;;;;;5118858;28;20240;-79
2021/04/01 09:44:34;;;;;;;3.47;2.00;;;;;;;;;;5118197;28;20308;-78
2021/04/01 09:47:07;;;;;;;3.80;2.33;;;;;;;;;;5111463;28;20293;-78
2021/04/01 09:49:41;;;;;;;9.30;2.23;;;;;;;;;;5106943;28;20261;-78
2021/04/01 09:52:13;;;;;;;3.47;2.30;;;;;;;;;;5104724;28;20561;-78
2021/04/01 09:54:44;;;;;;;14.07;2.83;;;;;;;;;;5104923;28;20229;-78
2021/04/01 09:57:12;;;;;;;4.37;2.30;;;;;;;;;;5106629;28;20684;-77
2021/04/01 09:59:47;;;;;;;4.67;2.43;;;;;;;;;;5107733;28;20258;-78
2021/04/01 10:02:20;;;;;;;5.23;2.20;;;;;;;;;;5107191;28;20229;-80
2021/04/01 10:04:50;;;;;;;4.43;2.20;;;;;;;;;;5119111;28;20234;-77
2021/04/01 10:07:19;;;;;;;5.03;2.20;;;;;;;;;;5116475;28;20227;-78
2021/04/01 10:09:49;;;;;;;6.23;2.70;;;;;;;;;;5106099;28;20211;-77
2021/04/01 10:12:19;;;;;;;3.00;1.90;;;;;;;;;;5108003;28;20285;-78
2021/04/01 10:14:50;;;;;;;4.13;1.90;;;;;;;;;;5105039;28;20714;-78
2021/04/01 10:17:19;;;;;;;3.73;1.83;;;;;;;;;;5106932;28;20285;-76
2021/04/01 10:19:51;;;;;;;9.07;2.53;;;;;;;;;;5098982;28;20693;-77
2021/04/01 10:22:19;;;;;;;5.30;2.40;;;;;;;;;;5106390;28;20260;-77
2021/04/01 10:25:02;;;;;;;4.50;2.00;;;;;;;;;;5107132;28;20222;-76
2021/04/01 10:27:35;;;;;;;3.30;2.17;;;;;;;;;;5105181;28;20309;-78
2021/04/01 10:30:06;;;;;;;3.80;2.20;;;;;;;;;;5100235;28;20285;-79
2021/04/01 10:32:35;;;;;;;2.60;1.97;;;;;;;;;;5103921;28;20285;-74
2021/04/01 10:35:07;;;;;;;4.63;2.27;;;;;;;;;;5111135;28;20303;-73
2021/04/01 10:37:35;;;;;;;6.40;2.47;;;;;;;;;;5107336;28;20285;-75
2021/04/01 10:40:05;;;;;;;2.97;1.97;;;;;;;;;;5105431;28;20717;-75
2021/04/01 10:42:32;;;;;;;2.97;2.37;;;;;;;;;;5117951;28;20285;-75
2021/04/01 10:45:00;;;;;;;3.87;1.93;;;;;;;;;;5107926;28;20221;-77
2021/04/01 10:47:37;;;;;;;6.80;2.13;;;;;;;;;;5116875;28;20258;-77
2021/04/01 10:50:05;;;;;;;2.53;2.03;;;;;;;;;;5111599;28;20696;-77
2021/04/01 10:52:33;;;;;;;2.23;1.50;;;;;;;;;;5103395;28;20240;-77
2021/04/01 10:55:00;;;;;;;2.90;2.10;;;;;;;;;;5116061;28;20301;-81
2021/04/01 10:57:29;;;;;;;1.70;1.60;;;;;;;;;;5116133;28;20661;-81
2021/04/01 10:59:58;;;;;;;2.00;1.77;;;;;;;;;;5118080;28;20236;-78
2021/04/01 11:02:33;;;;;;;4.00;1.53;;;;;;;;;;5102716;28;20303;-78
2021/04/01 11:05:04;;;;;;;6.17;2.10;;;;;;;;;;5118116;28;20265;-77
2021/04/01 11:07:36;;;;;;;3.37;1.93;;;;;;;;;;5111362;28;20222;-77
2021/04/01 11:10:03;;;;;;;4.70;1.93;;;;;;;;;;5117835;28;20249;-77
2021/04/01 11:12:31;;;;;;;6.67;3.60;;;;;;;;;;5117161;28;20235;-76
2021/04/01 11:15:03;;;;;;;3.23;1.67;;;;;;;;;;5117578;28;20231;-77
2021/04/01 11:17:31;;;;;;;3.80;1.63;;;;;;;;;;5114861;28;20237;-76
2021/04/01 11:19:59;;;;;;;4.97;1.90;;;;;;;;;;5107644;28;20231;-77
2021/04/01 11:22:26;;;;;;;3.97;1.60;;;;;;;;;;5111188;27;20323;-79
2021/04/01 11:24:55;;;;;;;4.63;2.20;;;;;;;;;;5104205;28;20241;-78
2021/04/01 11:27:22;;;;;;;7.30;2.30;;;;;;;;;;5110834;28;20248;-78
2021/04/01 11:29:51;;;;;;;8.07;2.30;;;;;;;;;;5117959;28;20311;-78
2021/04/01 11:32:19;;;;;;;2.20;1.80;;;;;;;;;;5112101;28;20281;-78
2021/04/01 11:34:47;;;;;;;2.80;1.67;;;;;;;;;;5103408;28;20270;-77
2021/04/01 11:37:18;;;;;;;3.27;1.60;;;;;;;;;;5115869;28;20665;-78
2021/04/01 11:39:45;;;;;;;2.73;1.80;;;;;;;;;;5116892;28;20268;-77
2021/04/01 11:42:14;;;;;;;2.57;1.50;;;;;;;;;;5117692;28;20569;-77
2021/04/01 11:44:42;;;;;;;2.27;1.43;;;;;;;;;;5116411;28;20249;-77
2021/04/01 11:47:13;;;;;;;3.17;1.50;;;;;;;;;;5116067;28;20232;-78
2021/04/01 11:49:40;;;;;;;1.97;1.57;;;;;;;;;;5112172;28;20297;-74
2021/04/01 11:52:08;;;;;;;1.83;1.60;;;;;;;;;;5103644;28;20202;-75
2021/04/01 11:54:36;;;;;;;4.50;1.70;;;;;;;;;;5105210;28;20646;-74
2021/04/01 11:57:16;;;;;;;2.70;1.57;;;;;;;;;;5105290;28;20202;-77
2021/04/01 11:59:50;;;;;;;2.10;1.70;;;;;;;;;;5101695;28;20240;-77
2021/04/01 12:02:19;;;;;;;1.53;1.30;;;;;;;;;;5104065;28;20232;-76
2021/04/01 12:04:48;;;;;;;2.27;1.70;;;;;;;;;;5101318;28;20221;-77
2021/04/01 12:07:16;;;;;;;2.53;1.70;;;;;;;;;;5109191;28;20346;-77
2021/04/01 12:09:45;;;;;;;3.57;2.20;;;;;;;;;;5117260;28;20293;-76
2021/04/01 12:12:13;;;;;;;3.80;1.60;;;;;;;;;;5114338;28;20206;-77
2021/04/01 12:14:40;;;;;;;4.77;1.93;;;;;;;;;;5107119;28;20318;-75
2021/04/01 12:17:08;;;;;;;2.17;1.70;;;;;;;;;;5115364;28;20199;-75
2021/04/01 12:19:35;;;;;;;5.90;2.23;;;;;;;;;;5117709;28;20246;-76
2021/04/01 12:22:07;;;;;;;5.03;1.77;;;;;;;;;;5107098;28;20240;-76
2021/04/01 12:24:34;;;;;;;2.37;1.80;;;;;;;;;;5114241;28;20263;-76
2021/04/01 12:27:01;;;;;;;5.83;1.83;;;;;;;;;;5109912;28;20282;-77
2021/04/01 12:29:28;;;;;;;2.00;1.80;;;;;;;;;;5108163;28;20650;-76
2021/04/01 12:31:57;;;;;;;2.27;1.50;;;;;;;;;;5112715;28;20584;-77
2021/04/01 12:34:24;;;;;;;5.17;1.70;;;;;;;;;;5121046;28;20291;-76
2021/04/01 12:36:51;;;;;;;2.67;1.67;;;;;;;;;;5110236;28;20283;-76
2021/04/01 12:39:28;;;;;;;2.87;1.90;;;;;;;;;;5117438;28;20196;-76
2021/04/01 12:41:55;;;;;;;3.83;1.87;;;;;;;;;;5105521;28;20732;-76
2021/04/01 12:44:32;;;;;;;5.03;1.97;;;;;;;;;;5119362;28;20262;-77
2021/04/01 12:47:00;;;;;;;4.33;1.60;;;;;;;;;;5119788;28;20310;-76
2021/04/01 12:49:31;;;;;;;2.37;1.43;;;;;;;;;;5120951;28;20214;-77
2021/04/01 12:52:01;;;;;;;1.90;1.40;;;;;;;;;;5112042;28;20230;-77
2021/04/01 12:54:29;;;;;;;3.57;1.90;;;;;;;;;;5107946;28;20771;-77
2021/04/01 12:56:57;;;;;;;3.43;1.70;;;;;;;;;;5108322;28;20200;-80
2021/04/01 12:59:30;;;;;;;4.87;1.80;;;;;;;;;;5116240;28;20206;-79
2021/04/01 13:02:02;;;;;;;9.20;2.20;;;;;;;;;;5102979;28;20288;-78
2021/04/01 13:04:32;;;;;;;3.40;1.60;;;;;;;;;;5120449;28;20221;-78
2021/04/01 13:07:08;;;;;;;4.80;2.03;;;;;;;;;;5108872;28;20772;-78
2021/04/01 13:09:43;;;;;;;3.03;1.80;;;;;;;;;;5107578;28;20279;-79
2021/04/01 13:12:11;;;;;;;3.03;1.53;;;;;;;;;;5118583;28;20215;-76
2021/04/01 13:14:39;;;;;;;2.93;1.27;;;;;;;;;;5120288;28;20570;-78
2021/04/01 13:17:06;;;;;;;1.97;1.57;;;;;;;;;;5119284;28;20201;-78
2021/04/01 13:19:34;;;;;;;3.43;1.30;;;;;;;;;;5120202;28;20232;-79
2021/04/01 13:22:13;;;;;;;1.40;1.20;;;;;;;;;;5110079;28;20229;-78
2021/04/01 13:25:06;;;;;;;4.70;1.30;;;;;;;;;;5118551;28;20248;-77
2021/04/01 13:27:34;;;;;;;2.67;1.30;;;;;;;;;;5120179;28;20344;-78
2021/04/01 13:30:05;;;;;;;1.90;1.67;;;;;;;;;;5118847;28;20644;-78
2021/04/01 13:32:37;;;;;;;1.40;1.33;;;;;;;;;;5107869;28;20212;-78
2021/04/01 13:35:08;;;;;;;5.57;1.70;;;;;;;;;;5119819;28;20718;-77
2021/04/01 13:37:38;;;;;;;4.40;1.50;;;;;;;;;;5108118;28;20289;-79
2021/04/01 13:40:10;;;;;;;6.03;1.33;;;;;;;;;;5118910;28;20212;-79
2021/04/01 13:42:38;;;;;;;3.63;1.50;;;;;;;;;;5111555;28;20246;-78
2021/04/01 13:45:08;;;;;;;2.70;1.30;;;;;;;;;;5104812;28;20293;-77
2021/04/01 13:47:37;;;;;;;1.83;1.10;;;;;;;;;;5114311;28;20637;-80
2021/04/01 13:50:06;;;;;;;3.00;1.40;;;;;;;;;;5118595;28;20201;-80
2021/04/01 13:52:36;;;;;;;1.33;1.20;;;;;;;;;;5103984;28;20278;-80
2021/04/01 13:55:08;;;;;;;3.17;1.27;;;;;;;;;;5114234;28;20221;-79
2021/04/01 14:00:32;;;;;;;4.60;1.60;;;;;;;;;;5106772;28;20201;-78
2021/04/01 14:08:58;;;;;;;3.83;1.53;;;;;;;;;;5105842;28;20200;-78
2021/04/01 14:11:25;;;;;;;2.70;1.43;;;;;;;;;;5112611;28;20197;-76
2021/04/01 14:13:52;;;;;;;1.73;1.30;;;;;;;;;;5107614;28;20644;-80
2021/04/01 14:16:20;;;;;;;3.13;1.40;;;;;;;;;;5105703;28;20745;-81
2021/04/01 14:18:49;;;;;;;2.63;1.40;;;;;;;;;;5107680;28;20283;-78
2021/04/01 14:21:20;;;;;;;1.30;1.20;;;;;;;;;;5105802;28;20197;-79
2021/04/01 14:23:49;;;;;;;2.87;1.47;;;;;;;;;;5107967;28;20309;-78
2021/04/01 14:26:21;;;;;;;1.97;1.50;;;;;;;;;;5103283;28;20308;-78
2021/04/01 14:28:48;;;;;;;2.30;1.17;;;;;;;;;;5105969;28;20293;-78
2021/04/01 14:31:16;;;;;;;4.40;1.90;;;;;;;;;;5105811;28;20235;-79
2021/04/01 14:33:44;;;;;;;2.47;1.50;;;;;;;;;;5109734;28;20853;-80
2021/04/01 14:36:22;;;;;;;1.77;1.10;;;;;;;;;;5117561;28;20632;-80
2021/04/01 14:38:49;;;;;;;4.27;1.10;;;;;;;;;;5118674;28;20209;-80
2021/04/01 14:41:21;;;;;;;4.00;1.13;;;;;;;;;;5112199;28;20285;-79
2021/04/01 14:43:52;;;;;;;3.47;1.43;;;;;;;;;;5114093;28;20289;-80
2021/04/01 14:46:19;;;;;;;4.43;1.07;;;;;;;;;;5116788;28;20310;-81
2021/04/01 14:48:46;;;;;;;5.60;1.40;;;;;;;;;;5113977;27;20212;-81
2021/04/01 14:51:13;;;;;;;1.73;1.00;;;;;;;;;;5113120;28;20291;-81
2021/04/01 14:53:45;;;;;;;4.37;1.83;;;;;;;;;;5109123;28;20654;-79
2021/04/01 14:56:13;;;;;;;2.33;1.40;;;;;;;;;;5112261;27;20223;-82
2021/04/01 14:58:41;;;;;;;1.43;1.07;;;;;;;;;;5118103;28;20291;-80
2021/04/01 15:01:08;;;;;;;1.47;1.00;;;;;;;;;;5116251;28;20231;-82
2021/04/01 15:03:36;;;;;;;2.60;1.13;;;;;;;;;;5103865;28;20199;-79
2021/04/01 15:06:03;;;;;;;3.63;1.53;;;;;;;;;;5117816;28;20250;-81
2021/04/01 15:08:31;;;;;;;5.10;1.23;;;;;;;;;;5103434;27;20201;-80
2021/04/01 15:10:59;;;;;;;5.53;2.17;;;;;;;;;;5115630;28;20254;-80
2021/04/01 15:13:26;;;;;;;3.67;1.30;;;;;;;;;;5116067;28;20279;-80
2021/04/01 15:15:54;;;;;;;2.20;1.10;;;;;;;;;;5117622;28;20309;-80
2021/04/01 15:18:23;;;;;;;1.50;1.20;;;;;;;;;;5118497;28;20240;-80
2021/04/01 15:20:51;;;;;;;4.63;1.60;;;;;;;;;;5116812;28;20292;-79
2021/04/01 15:23:18;;;;;;;1.77;1.10;;;;;;;;;;5116463;28;20312;-80
2021/04/01 15:25:45;;;;;;;1.20;1.10;;;;;;;;;;5118214;28;20258;-79
2021/04/01 15:28:14;;;;;;;5.27;1.73;;;;;;;;;;5117255;28;20303;-80
2021/04/01 15:30:41;;;;;;;1.87;1.30;;;;;;;;;;5118540;28;20696;-80
2021/04/01 15:33:08;;;;;;;6.00;1.10;;;;;;;;;;5105962;28;20258;-80
2021/04/01 15:35:36;;;;;;;3.53;1.13;;;;;;;;;;5109724;28;20695;-80
2021/04/01 15:38:03;;;;;;;4.17;1.20;;;;;;;;;;5116993;28;20690;-80
2021/04/01 15:40:31;;;;;;;4.97;1.40;;;;;;;;;;5118100;28;20610;-80
2021/04/01 15:43:04;;;;;;;1.77;1.20;;;;;;;;;;5117181;28;20253;-80
2021/04/01 15:45:32;;;;;;;3.50;1.37;;;;;;;;;;5117976;28;20323;-80
2021/04/01 15:47:59;;;;;;;2.60;1.33;;;;;;;;;;5117256;28;20232;-80
2021/04/01 15:50:26;;;;;;;3.43;1.50;;;;;;;;;;5118452;28;20209;-80
2021/04/01 15:52:54;;;;;;;4.23;1.40;;;;;;;;;;5114033;28;20206;-80
2021/04/01 15:55:21;;;;;;;3.30;1.13;;;;;;;;;;5117083;28;20255;-80
2021/04/01 15:57:48;;;;;;;3.07;1.40;;;;;;;;;;5103770;28;20201;-79
2021/04/01 16:00:16;;;;;;;3.40;1.27;;;;;;;;;;5119229;28;20297;-80
2021/04/01 16:02:44;;;;;;;2.27;1.00;;;;;;;;;;5117290;28;20733;-79
2021/04/01 16:05:11;;;;;;;4.20;1.40;;;;;;;;;;5120917;28;20780;-79